General Servando Canales International Airport
MMMA : now visible

Airfield :











YOU CAN JOIN US ON...

 
LOGIN :

Register | Disclaimer

   EN    FR    IT 

 









Legend :    VFR   Marginal VFR   IFR   Intensive IFR   Very Intensive IFR
Visi :
Ceiling :
>= 8 km
>= 3000ft
5 to 8 km
1000 to 3000 ft
1500m to 5 km
500 to 1000 ft
800 to 1500m
200 to 500 ft
< 800m
< 200 ft
Symbols :   Thunderstorms  Fog  Heavy snow  Heavy precipitations  Wind > 20 kt






- Airport Elevation : 25 ft
- IATA code : MAM


MMMA - General Servando Canales International

EXPIRED METARs :
  • 260140Z 16010KT 7SM SCT035 OVC070 22/19 A2997 RMK 8/12/ HZY
  • 260040Z 15007KT 7SM BKN035 OVC070 22/19 A2997 RMK 8/52/ HZY

TAF AMD TAF MMMA
Valid from the 26 at 00:00 until the 26 at 18:00 UTC


252339Z 2600/2618 16010KT P6SM SCT010 OVC070
TEMPO 2600/2604 5SM RA BKN010 OVC050
FM260600 15008KT 3SM BR BKN010
FM261200 34010KT P6SM BKN030 BKN200



MET'MAP, your aeronautical weather chart ! - Copyright ORBIFLY December 2007 - Disclaimer

ORBIFLY MET'MAP TEAM :

Programming & Development : Alexandra Zaïnal
Concept & original design : Baudouin d'Aumeries
Assistance for programming : Marc-Olivier Méhu
Technical & hardware support : Manuel Goepfert

Contact : metmap@orbifly.com




SOURCES & CREDITS :

   NOAA       Earth
Advisory